createdAt,value
2018-12-15T00:00:30.214Z,12.20
2018-12-15T00:02:58.502Z,11.50
2018-12-15T00:05:27.065Z,11.30
2018-12-15T00:07:55.337Z,10.90
2018-12-15T00:10:23.978Z,12.00
2018-12-15T00:12:52.261Z,11.40
2018-12-15T00:15:20.981Z,11.35
2018-12-15T00:17:49.269Z,12.07
2018-12-15T00:20:17.901Z,12.73
2018-12-15T00:22:46.302Z,12.33
2018-12-15T00:25:15.154Z,10.65
2018-12-15T00:27:43.432Z,10.30
2018-12-15T00:30:12.134Z,11.37
2018-12-15T00:32:40.520Z,11.13
2018-12-15T00:35:09.155Z,10.43
2018-12-15T00:37:37.506Z,11.37
2018-12-15T00:40:05.974Z,10.60
2018-12-15T00:42:34.283Z,11.23
2018-12-15T00:45:02.701Z,11.30
2018-12-15T00:47:31.147Z,11.03
2018-12-15T00:49:59.423Z,11.10
2018-12-15T00:52:27.993Z,10.27
2018-12-15T00:54:56.271Z,11.50
2018-12-15T00:57:24.560Z,10.23
2018-12-15T00:59:53.040Z,11.60
2018-12-15T01:02:21.371Z,11.47
2018-12-15T01:04:49.992Z,10.30
2018-12-15T01:07:18.444Z,11.87
2018-12-15T01:09:46.992Z,11.20
2018-12-15T01:12:15.324Z,11.70
2018-12-15T01:14:43.623Z,11.63
2018-12-15T01:17:12.232Z,10.53
2018-12-15T01:19:40.510Z,10.80
2018-12-15T01:22:09.144Z,11.07
2018-12-15T01:24:37.529Z,11.50
2018-12-15T01:27:06.036Z,10.53
2018-12-15T01:29:34.342Z,10.83
2018-12-15T01:32:02.641Z,10.37
2018-12-15T01:34:31.149Z,12.03
2018-12-15T01:36:59.466Z,11.23
2018-12-15T01:39:28.089Z,11.40
2018-12-15T01:41:56.390Z,11.17
2018-12-15T01:44:25.254Z,12.30
2018-12-15T01:46:53.758Z,11.50
2018-12-15T01:49:22.172Z,11.60
2018-12-15T01:51:50.492Z,12.30
2018-12-15T01:54:19.268Z,12.07
2018-12-15T01:56:47.589Z,11.63
2018-12-15T01:59:16.166Z,13.35
2018-12-15T02:01:44.478Z,12.03
2018-12-15T02:04:13.048Z,11.95
2018-12-15T02:06:41.366Z,11.63
2018-12-15T02:09:09.651Z,12.67
2018-12-15T02:11:38.108Z,11.70
2018-12-15T02:14:06.385Z,12.07
2018-12-15T02:16:34.709Z,12.97
2018-12-15T02:19:03.257Z,11.93
2018-12-15T02:21:31.694Z,12.33
2018-12-15T02:24:00.168Z,12.37
2018-12-15T02:26:28.496Z,12.57
2018-12-15T02:28:57.080Z,13.33
2018-12-15T02:31:25.358Z,13.13
2018-12-15T02:33:53.656Z,12.67
2018-12-15T02:36:22.260Z,12.60
2018-12-15T02:38:50.662Z,11.33
2018-12-15T02:41:19.333Z,12.37
2018-12-15T02:43:47.652Z,12.53
2018-12-15T02:46:16.217Z,11.90
2018-12-15T02:48:44.536Z,12.37
2018-12-15T02:51:13.085Z,13.28
2018-12-15T02:53:41.451Z,12.93
2018-12-15T02:56:10.315Z,12.00
2018-12-15T02:58:38.722Z,12.27
2018-12-15T03:01:08.116Z,12.47
2018-12-15T03:03:36.420Z,12.80
2018-12-15T03:06:04.771Z,13.87
2018-12-15T03:08:33.223Z,12.60
2018-12-15T03:11:01.507Z,12.23
2018-12-15T03:13:30.125Z,12.83
2018-12-15T03:15:58.425Z,12.13
2018-12-15T03:18:26.807Z,12.80
2018-12-15T03:21:02.941Z,12.37
2018-12-15T03:23:31.317Z,12.97
2018-12-15T03:25:59.748Z,12.63
2018-12-15T03:28:28.329Z,14.03
2018-12-15T03:30:56.634Z,13.80
2018-12-15T03:33:25.128Z,13.27
2018-12-15T03:35:53.485Z,14.47
2018-12-15T03:38:21.925Z,13.23
2018-12-15T03:40:50.256Z,12.30
2018-12-15T03:43:18.545Z,13.37
2018-12-15T03:45:46.825Z,12.67
2018-12-15T03:48:15.445Z,13.23
2018-12-15T03:50:43.732Z,12.33
2018-12-15T03:53:12.445Z,12.13
2018-12-15T03:55:40.865Z,13.77
2018-12-15T03:58:09.422Z,12.27
2018-12-15T04:00:37.698Z,14.00
2018-12-15T04:03:06.306Z,13.00
2018-12-15T04:05:34.646Z,13.40
2018-12-15T04:08:02.945Z,13.40
2018-12-15T04:10:31.241Z,12.53
2018-12-15T04:12:59.647Z,12.93
2018-12-15T04:15:28.237Z,13.03
2018-12-15T04:18:03.484Z,12.67
2018-12-15T04:20:27.016Z,12.67
2018-12-15T04:22:55.582Z,13.10
2018-12-15T04:25:23.896Z,13.30
2018-12-15T04:27:52.380Z,13.13
2018-12-15T04:30:20.776Z,13.37
2018-12-15T04:32:49.340Z,13.37
2018-12-15T04:35:17.670Z,13.07
2018-12-15T04:37:46.076Z,11.37
2018-12-15T04:40:14.889Z,12.50
2018-12-15T04:42:43.435Z,11.60
2018-12-15T04:45:11.741Z,13.17
2018-12-15T04:47:40.540Z,13.83
2018-12-15T04:50:09.004Z,13.80
2018-12-15T04:52:37.426Z,13.83
2018-12-15T04:55:05.839Z,13.17
2018-12-15T04:57:34.434Z,14.13
2018-12-15T05:00:02.837Z,13.80
2018-12-15T05:02:31.606Z,13.23
2018-12-15T05:04:59.989Z,13.30
2018-12-15T05:07:28.394Z,12.83
2018-12-15T05:09:56.734Z,12.77
2018-12-15T05:12:25.115Z,13.37
2018-12-15T05:14:53.655Z,12.53
2018-12-15T05:17:22.057Z,13.13
2018-12-15T05:19:50.500Z,12.33
2018-12-15T05:22:19.349Z,11.93
2018-12-15T05:24:48.188Z,12.43
2018-12-15T05:27:16.975Z,12.80
2018-12-15T05:29:45.564Z,12.70
2018-12-15T05:32:14.051Z,12.47
2018-12-15T05:34:42.577Z,13.17
2018-12-15T05:37:10.863Z,13.37
2018-12-15T05:39:39.431Z,13.47
2018-12-15T05:42:08.386Z,13.70
2018-12-15T05:44:36.798Z,12.27
2018-12-15T05:47:05.097Z,12.90
2018-12-15T05:49:33.611Z,12.93
2018-12-15T05:52:01.886Z,12.23
2018-12-15T05:54:30.508Z,13.70
2018-12-15T05:56:58.789Z,12.47
2018-12-15T05:59:27.153Z,12.57
2018-12-15T06:01:55.533Z,12.00
2018-12-15T06:04:23.905Z,13.20
2018-12-15T06:06:52.502Z,11.63
2018-12-15T06:09:20.860Z,12.73
2018-12-15T06:11:49.144Z,12.40
2018-12-15T06:14:17.513Z,12.53
2018-12-15T06:16:45.799Z,12.27
2018-12-15T06:19:14.855Z,12.60
2018-12-15T06:21:43.143Z,12.80
2018-12-15T06:24:11.711Z,11.23
2018-12-15T06:26:40.072Z,11.00
2018-12-15T06:29:08.937Z,11.13
2018-12-15T06:31:37.429Z,11.10
2018-12-15T06:34:05.773Z,10.67
2018-12-15T06:36:34.073Z,11.27
2018-12-15T06:39:02.632Z,10.73
2018-12-15T06:41:31.486Z,10.57
2018-12-15T06:43:59.774Z,10.07
2018-12-15T06:46:28.070Z,9.00
2018-12-15T06:48:56.545Z,9.83
2018-12-15T06:51:24.673Z,10.23
2018-12-15T06:53:53.022Z,8.80
2018-12-15T06:56:23.427Z,9.00
2018-12-15T06:58:51.481Z,7.47
2018-12-15T07:01:19.881Z,7.33
2018-12-15T07:03:48.255Z,8.00
2018-12-15T07:06:16.928Z,7.17
2018-12-15T07:08:45.213Z,7.53
2018-12-15T07:11:13.928Z,7.63
2018-12-15T07:13:42.498Z,6.97
2018-12-15T07:16:10.834Z,8.00
2018-12-15T07:18:44.615Z,7.43
2018-12-15T07:21:09.219Z,8.03
2018-12-15T07:23:37.559Z,7.97
2018-12-15T07:26:06.833Z,8.03
2018-12-15T07:28:35.357Z,8.17
2018-12-15T07:31:03.771Z,7.87
2018-12-15T07:33:32.099Z,8.00
2018-12-15T07:36:00.906Z,8.20
2018-12-15T07:38:29.570Z,8.27
2018-12-15T07:40:57.889Z,8.63
2018-12-15T07:43:26.178Z,9.43
2018-12-15T07:45:54.759Z,8.07
2018-12-15T07:48:23.189Z,7.67
2018-12-15T07:50:51.661Z,8.73
2018-12-15T07:53:19.953Z,8.90
2018-12-15T07:55:48.273Z,9.17
2018-12-15T07:58:16.896Z,9.73
2018-12-15T08:00:45.215Z,9.60
2018-12-15T08:03:13.835Z,8.67
2018-12-15T08:05:42.135Z,9.03
2018-12-15T08:08:10.704Z,11.13
2018-12-15T08:10:44.469Z,10.13
2018-12-15T08:13:14.587Z,8.83
2018-12-15T08:15:43.131Z,11.57
2018-12-15T08:18:11.734Z,12.17
2018-12-15T08:20:39.797Z,13.37
2018-12-15T08:23:08.393Z,11.30
2018-12-15T08:25:36.863Z,9.10
2018-12-15T08:28:04.988Z,9.70
2018-12-15T08:30:35.118Z,8.73
2018-12-15T08:33:03.340Z,8.80
2018-12-15T08:35:31.673Z,9.57
2018-12-15T08:38:00.012Z,8.60
2018-12-15T08:40:28.327Z,9.20
2018-12-15T08:42:56.848Z,8.40
2018-12-15T08:45:24.885Z,7.55
2018-12-15T08:47:53.170Z,8.73
2018-12-15T08:50:21.776Z,8.83
2018-12-15T08:52:50.166Z,10.10
2018-12-15T08:55:18.856Z,10.78
2018-12-15T08:57:47.279Z,10.13
2018-12-15T09:00:15.958Z,11.47
2018-12-15T09:02:44.066Z,9.63
2018-12-15T09:05:12.479Z,10.57
2018-12-15T09:07:40.813Z,10.60
2018-12-15T09:10:09.285Z,10.27
2018-12-15T09:12:37.765Z,9.97
2018-12-15T09:15:06.356Z,9.63
2018-12-15T09:17:34.556Z,11.00
2018-12-15T09:20:03.026Z,9.47
2018-12-15T09:22:31.490Z,9.67
2018-12-15T09:24:59.671Z,9.37
2018-12-15T09:27:27.974Z,8.90
2018-12-15T09:29:56.113Z,10.33
2018-12-15T09:32:24.625Z,10.33
2018-12-15T09:34:52.959Z,10.00
2018-12-15T09:37:21.301Z,10.40
2018-12-15T09:39:49.484Z,10.13
2018-12-15T09:42:17.784Z,8.90
2018-12-15T09:44:46.068Z,11.73
2018-12-15T09:47:14.512Z,9.37
2018-12-15T09:49:42.814Z,11.20
2018-12-15T09:52:10.933Z,10.47
2018-12-15T09:54:39.269Z,11.07
2018-12-15T09:57:08.880Z,10.60
2018-12-15T09:59:37.152Z,12.03
2018-12-15T10:02:05.831Z,9.45
2018-12-15T10:04:34.172Z,9.20
2018-12-15T10:07:02.480Z,9.10
2018-12-15T10:09:31.012Z,9.30
2018-12-15T10:11:59.414Z,9.83
2018-12-15T10:14:27.910Z,9.67
2018-12-15T10:16:56.571Z,9.07
2018-12-15T10:19:24.976Z,9.90
2018-12-15T10:21:53.411Z,8.00
2018-12-15T10:24:22.011Z,8.93
2018-12-15T10:26:50.417Z,9.53
2018-12-15T10:29:24.529Z,9.83
2018-12-15T10:31:58.576Z,9.47
2018-12-15T10:34:27.112Z,7.80
2018-12-15T10:36:55.656Z,8.77
2018-12-15T10:39:24.073Z,8.20
2018-12-15T10:41:52.140Z,8.83
2018-12-15T10:44:20.642Z,9.63
2018-12-15T10:46:48.998Z,9.67
2018-12-15T10:49:17.319Z,8.97
2018-12-15T10:51:45.661Z,9.77
2018-12-15T10:54:14.642Z,9.30
2018-12-15T10:56:42.999Z,8.53
2018-12-15T10:59:11.316Z,8.80
2018-12-15T11:01:39.889Z,8.57
2018-12-15T11:04:09.299Z,8.13
2018-12-15T11:06:37.839Z,7.43
2018-12-15T11:09:06.390Z,8.80
2018-12-15T11:11:36.566Z,7.50
2018-12-15T11:14:04.769Z,8.13
2018-12-15T11:16:33.126Z,7.93
2018-12-15T11:19:01.538Z,8.50
2018-12-15T11:21:29.812Z,8.90
2018-12-15T11:23:58.140Z,8.23
2018-12-15T11:26:26.595Z,7.70
2018-12-15T11:28:54.971Z,7.40
2018-12-15T11:31:23.305Z,9.17
2018-12-15T11:33:51.610Z,8.33
2018-12-15T11:36:19.947Z,8.40
2018-12-15T11:38:48.265Z,8.53
2018-12-15T11:41:16.584Z,8.20
2018-12-15T11:43:45.251Z,7.23
2018-12-15T11:46:13.533Z,7.87
2018-12-15T11:48:41.843Z,9.17
2018-12-15T11:51:09.933Z,7.80
2018-12-15T11:53:38.255Z,7.90
2018-12-15T11:56:06.660Z,8.97
2018-12-15T11:58:35.017Z,7.83
2018-12-15T12:01:03.316Z,8.43
2018-12-15T12:03:31.689Z,8.80
2018-12-15T12:06:00.075Z,7.33
2018-12-15T12:08:28.385Z,8.63
2018-12-15T12:10:56.724Z,9.00
2018-12-15T12:13:25.293Z,7.60
2018-12-15T12:15:53.368Z,7.67
2018-12-15T12:18:21.744Z,8.47
2018-12-15T12:20:50.020Z,8.33
2018-12-15T12:23:18.104Z,8.37
2018-12-15T12:25:46.382Z,7.43
2018-12-15T12:28:14.725Z,7.80
2018-12-15T12:30:43.130Z,7.90
2018-12-15T12:33:11.206Z,7.50
2018-12-15T12:35:39.501Z,6.67
2018-12-15T12:38:08.770Z,7.30
2018-12-15T12:40:37.069Z,7.60
2018-12-15T12:43:05.110Z,7.93
2018-12-15T12:45:33.204Z,8.73
2018-12-15T12:48:01.488Z,7.57
2018-12-15T12:50:30.106Z,8.03
2018-12-15T12:52:58.716Z,30.77
2018-12-15T12:55:27.305Z,15.23
2018-12-15T12:57:55.591Z,9.33
2018-12-15T13:00:23.977Z,13.40
2018-12-15T13:02:52.285Z,13.13
2018-12-15T13:05:20.614Z,12.60
2018-12-15T13:07:49.085Z,11.80
2018-12-15T13:10:17.669Z,12.00
2018-12-15T13:12:46.146Z,11.00
2018-12-15T13:15:14.460Z,10.77
2018-12-15T13:17:42.754Z,8.80
2018-12-15T13:20:11.334Z,8.43
2018-12-15T13:22:39.389Z,8.50
2018-12-15T13:25:08.227Z,9.13
2018-12-15T13:27:36.271Z,9.07
2018-12-15T13:30:04.723Z,9.20
2018-12-15T13:32:32.807Z,8.60
2018-12-15T13:35:00.845Z,7.50
2018-12-15T13:37:28.897Z,7.67
2018-12-15T13:39:57.202Z,7.57
2018-12-15T13:42:25.232Z,8.00
2018-12-15T13:44:53.262Z,9.67
2018-12-15T13:47:21.356Z,9.80
2018-12-15T13:49:49.622Z,9.50
2018-12-15T13:52:19.106Z,9.23
2018-12-15T13:54:47.457Z,8.47
2018-12-15T13:57:15.499Z,8.63
2018-12-15T13:59:43.661Z,8.47
2018-12-15T14:02:11.776Z,11.20
2018-12-15T14:04:39.826Z,9.33
2018-12-15T14:07:08.772Z,8.63
2018-12-15T14:09:36.846Z,12.10
2018-12-15T14:12:05.175Z,10.53
2018-12-15T14:14:33.276Z,9.63
2018-12-15T14:17:01.390Z,8.87
2018-12-15T14:19:29.513Z,9.63
2018-12-15T14:21:57.663Z,8.53
2018-12-15T14:24:26.074Z,9.97
2018-12-15T14:26:54.392Z,10.47
2018-12-15T14:29:22.717Z,10.77
2018-12-15T14:31:50.988Z,10.23
2018-12-15T14:34:20.442Z,8.83
2018-12-15T14:36:49.656Z,8.70
2018-12-15T14:39:17.840Z,11.17
2018-12-15T14:41:45.928Z,11.00
2018-12-15T14:44:14.017Z,12.40
2018-12-15T14:46:42.119Z,13.50
2018-12-15T14:49:10.209Z,17.03
2018-12-15T14:51:38.247Z,13.63
2018-12-15T14:54:06.626Z,13.00
2018-12-15T14:56:34.989Z,14.03
2018-12-15T14:59:03.044Z,12.93
2018-12-15T15:01:31.380Z,11.63
2018-12-15T15:03:59.418Z,10.20
2018-12-15T15:06:27.508Z,11.27
2018-12-15T15:08:55.595Z,11.13
2018-12-15T15:11:23.767Z,12.00
2018-12-15T15:13:51.871Z,12.80
2018-12-15T15:16:20.075Z,12.07
2018-12-15T15:18:48.342Z,11.30
2018-12-15T15:21:16.695Z,11.23
2018-12-15T15:23:45.286Z,11.43
2018-12-15T15:26:13.405Z,14.20
2018-12-15T15:28:41.594Z,11.50
2018-12-15T15:31:09.703Z,12.77
2018-12-15T15:33:37.840Z,11.37
2018-12-15T15:36:05.915Z,11.73
2018-12-15T15:38:34.015Z,10.70
2018-12-15T15:41:02.101Z,9.93
2018-12-15T15:43:30.132Z,10.30
2018-12-15T15:45:58.488Z,10.10
2018-12-15T15:48:26.808Z,9.43
2018-12-15T15:50:55.428Z,11.17
2018-12-15T15:53:23.510Z,10.77
2018-12-15T15:55:51.879Z,10.27
2018-12-15T15:58:20.475Z,11.30
2018-12-15T16:00:48.742Z,11.73
2018-12-15T16:03:16.810Z,14.23
2018-12-15T16:05:45.201Z,13.73
2018-12-15T16:08:13.549Z,12.63
2018-12-15T16:10:41.813Z,11.23
2018-12-15T16:13:10.180Z,10.63
2018-12-15T16:15:38.472Z,10.77
2018-12-15T16:18:06.549Z,13.87
2018-12-15T16:20:34.945Z,10.93
2018-12-15T16:23:03.203Z,10.93
2018-12-15T16:25:31.254Z,11.10
2018-12-15T16:27:59.595Z,10.63
2018-12-15T16:30:27.869Z,11.50
2018-12-15T16:32:56.534Z,11.03
2018-12-15T16:35:24.952Z,10.23
2018-12-15T16:37:53.517Z,11.73
2018-12-15T16:40:21.868Z,10.07
2018-12-15T16:42:50.266Z,9.23
2018-12-15T16:45:18.562Z,10.00
2018-12-15T16:47:46.904Z,9.33
2018-12-15T16:50:15.231Z,10.10
2018-12-15T16:52:43.526Z,9.40
2018-12-15T16:55:12.206Z,9.90
2018-12-15T16:57:40.582Z,8.67
2018-12-15T17:00:10.765Z,9.40
2018-12-15T17:02:38.852Z,9.10
2018-12-15T17:05:07.257Z,9.30
2018-12-15T17:07:35.655Z,10.93
2018-12-15T17:10:05.599Z,10.33
2018-12-15T17:12:33.712Z,10.77
2018-12-15T17:15:01.984Z,9.83
2018-12-15T17:17:30.545Z,11.00
2018-12-15T17:19:58.896Z,9.60
2018-12-15T17:22:27.252Z,9.40
2018-12-15T17:24:55.597Z,8.63
2018-12-15T17:27:26.798Z,9.50
2018-12-15T17:29:55.226Z,8.33
2018-12-15T17:32:23.604Z,7.97
2018-12-15T17:34:51.887Z,7.90
2018-12-15T17:37:20.529Z,7.85
2018-12-15T17:39:48.991Z,8.43
2018-12-15T17:42:17.681Z,8.23
2018-12-15T17:44:45.838Z,8.47
2018-12-15T17:47:13.905Z,7.93
2018-12-15T17:49:42.335Z,7.70
2018-12-15T17:52:10.790Z,7.83
2018-12-15T17:54:39.057Z,8.43
2018-12-15T17:57:08.284Z,7.40
2018-12-15T17:59:36.557Z,6.33
2018-12-15T18:02:04.991Z,6.63
2018-12-15T18:04:33.350Z,6.73
2018-12-15T18:07:01.463Z,6.60
2018-12-15T18:09:29.669Z,6.67
2018-12-15T18:11:57.715Z,6.80
2018-12-15T18:14:25.792Z,6.90
2018-12-15T18:16:53.828Z,6.97
2018-12-15T18:19:22.000Z,6.23
2018-12-15T18:21:50.208Z,6.13
2018-12-15T18:24:18.619Z,6.10
2018-12-15T18:26:46.678Z,5.70
2018-12-15T18:29:15.163Z,7.40
2018-12-15T18:31:43.406Z,8.10
2018-12-15T18:34:11.467Z,9.53
2018-12-15T18:36:39.541Z,8.33
2018-12-15T18:39:07.857Z,8.10
2018-12-15T18:41:35.926Z,8.10
2018-12-15T18:44:04.232Z,8.13
2018-12-15T18:46:32.823Z,8.13
2018-12-15T18:49:01.289Z,8.00
2018-12-15T18:51:29.432Z,7.00
2018-12-15T18:53:57.576Z,6.67
2018-12-15T18:56:25.884Z,7.33
2018-12-15T18:58:54.368Z,6.40
2018-12-15T19:01:22.930Z,7.33
2018-12-15T19:03:51.301Z,6.90
2018-12-15T19:06:19.921Z,6.85
2018-12-15T19:08:48.013Z,8.57
2018-12-15T19:11:16.176Z,8.23
2018-12-15T19:13:44.232Z,7.80
2018-12-15T19:16:12.480Z,7.87
2018-12-15T19:18:40.555Z,7.83
2018-12-15T19:21:09.304Z,7.05
2018-12-15T19:23:37.392Z,9.00
2018-12-15T19:26:05.491Z,7.97
2018-12-15T19:28:33.553Z,8.27
2018-12-15T19:31:01.680Z,7.40
2018-12-15T19:33:29.761Z,8.47
2018-12-15T19:35:58.139Z,7.90
2018-12-15T19:38:26.562Z,8.77
2018-12-15T19:40:54.628Z,8.33
2018-12-15T19:43:23.164Z,8.30
2018-12-15T19:45:51.536Z,7.30
2018-12-15T19:48:19.642Z,8.60
2018-12-15T19:50:48.060Z,7.40
2018-12-15T19:53:16.160Z,8.53
2018-12-15T19:55:44.701Z,7.80
2018-12-15T19:58:12.843Z,9.40
2018-12-15T20:00:41.318Z,9.43
2018-12-15T20:03:09.801Z,8.50
2018-12-15T20:05:37.996Z,9.60
2018-12-15T20:08:06.363Z,9.90
2018-12-15T20:10:35.028Z,9.40
2018-12-15T20:13:03.346Z,8.67
2018-12-15T20:15:31.847Z,9.07
2018-12-15T20:18:00.154Z,10.67
2018-12-15T20:20:28.744Z,8.83
2018-12-15T20:22:57.040Z,9.17
2018-12-15T20:25:25.443Z,9.40
2018-12-15T20:27:53.946Z,9.13
2018-12-15T20:30:22.349Z,8.97
2018-12-15T20:32:50.877Z,9.10
2018-12-15T20:35:19.263Z,10.13
2018-12-15T20:37:47.921Z,9.80
2018-12-15T20:40:16.605Z,9.70
2018-12-15T20:42:44.930Z,10.17
2018-12-15T20:45:13.546Z,11.47
2018-12-15T20:47:42.006Z,10.63
2018-12-15T20:50:10.414Z,9.50
2018-12-15T20:52:39.006Z,10.70
2018-12-15T20:55:07.588Z,9.90
2018-12-15T20:57:35.975Z,9.97
2018-12-15T21:00:05.830Z,10.50
2018-12-15T21:02:34.289Z,10.30
2018-12-15T21:05:03.019Z,11.70
2018-12-15T21:07:31.635Z,12.57
2018-12-15T21:10:00.294Z,12.27
2018-12-15T21:12:28.776Z,11.03
2018-12-15T21:14:59.151Z,12.67
2018-12-15T21:17:27.599Z,12.30
2018-12-15T21:19:56.259Z,11.37
2018-12-15T21:22:24.931Z,11.73
2018-12-15T21:24:53.250Z,11.07
2018-12-15T21:27:21.879Z,12.37
2018-12-15T21:29:50.318Z,12.00
2018-12-15T21:32:18.884Z,13.62
2018-12-15T21:34:47.263Z,12.40
2018-12-15T21:37:15.840Z,11.65
2018-12-15T21:39:44.228Z,12.97
2018-12-15T21:42:12.838Z,12.60
2018-12-15T21:44:41.201Z,12.57
2018-12-15T21:47:10.287Z,12.85
2018-12-15T21:49:38.881Z,13.03
2018-12-15T21:52:07.372Z,13.23
2018-12-15T21:54:36.091Z,12.40
2018-12-15T21:57:04.579Z,13.17
2018-12-15T21:59:32.941Z,13.57
2018-12-15T22:02:01.341Z,12.57
2018-12-15T22:04:30.092Z,12.40
2018-12-15T22:06:59.176Z,12.70
2018-12-15T22:09:27.591Z,12.20
2018-12-15T22:11:58.830Z,13.17
2018-12-15T22:14:27.134Z,12.80
2018-12-15T22:16:55.680Z,11.77
2018-12-15T22:19:24.186Z,12.03
2018-12-15T22:21:52.491Z,12.60
2018-12-15T22:24:21.279Z,13.60
2018-12-15T22:26:49.941Z,11.90
2018-12-15T22:29:18.409Z,12.53
2018-12-15T22:31:47.075Z,12.77
2018-12-15T22:34:15.428Z,12.23
2018-12-15T22:36:43.982Z,12.70
2018-12-15T22:39:12.274Z,13.83
2018-12-15T22:41:41.100Z,13.07
2018-12-15T22:44:10.252Z,13.93
2018-12-15T22:46:38.759Z,13.87
2018-12-15T22:49:07.377Z,15.80
2018-12-15T22:51:35.941Z,17.90
2018-12-15T22:54:04.582Z,16.70
2018-12-15T22:56:33.330Z,15.43
2018-12-15T22:59:02.633Z,15.53
2018-12-15T23:01:33.201Z,15.13
2018-12-15T23:04:01.579Z,13.27
2018-12-15T23:06:30.106Z,13.57
2018-12-15T23:08:58.485Z,13.60
2018-12-15T23:11:28.083Z,13.60
2018-12-15T23:13:56.466Z,14.27
2018-12-15T23:16:27.556Z,15.13
2018-12-15T23:18:56.185Z,14.43
2018-12-15T23:21:24.554Z,13.77
2018-12-15T23:23:52.856Z,13.87
2018-12-15T23:26:21.348Z,13.40
2018-12-15T23:28:49.727Z,14.03
2018-12-15T23:31:18.265Z,14.10
2018-12-15T23:33:46.593Z,14.10
2018-12-15T23:36:15.265Z,14.63
2018-12-15T23:38:43.698Z,15.17
2018-12-15T23:41:12.442Z,14.83
2018-12-15T23:43:40.810Z,13.93
2018-12-15T23:46:10.593Z,13.85
2018-12-15T23:48:39.243Z,12.67
2018-12-15T23:51:07.574Z,13.13
2018-12-15T23:53:36.246Z,14.83
2018-12-15T23:56:04.626Z,12.90
2018-12-15T23:58:33.242Z,13.13
